Ingeniero Jacobacci, Argentina
Current Conditions -  °F | °C
As of 5:00 PM on Sunday 25 Jan 2015 (Local Time) from SAZS Reporting Station
Clear Clear  
Wind Chill: 81°   Ceiling: Unl
Heat Index: 81°   Visibility: 6mi
Dew Point: 39°   Wind: 20mph
Humidity: 23%   Direction: 320°NW
Pressure: 29.88"   Gusts: NA
Location:  41.43°S, 69.47°W
Report Text: SAZS 252000Z 32017KT CAVOK 27/04 Q1012
Loading
Personal Weather Stations






























Interactive Weather Map New forecast layout! Learn more

10-Day Weather Forecast

Advertisements
Track Severe Weather on mobile